Time;durP1;ratioP1;P1;durP2;ratioP2;P2;SDS_P1;SDS_P2;PMS_P1;PMS_P2;Temp;Humidity;BMP_temperature;BMP_pressure;BME280_temperature;BME280_humidity;BME280_pressure;Samples;Min_cycle;Max_cycle;Signal;HPM_P1;HPM_P2
2022/01/07 00:01:39;;;;;;;8.70;3.03;;;-1.80;99.90;;;;;;10079767;29;20208;-79
2022/01/07 00:07:03;;;;;;;8.97;3.10;;;-1.80;99.90;;;;;;10066717;29;20278;-78
2022/01/07 00:12:25;;;;;;;6.37;2.63;;;-1.80;99.90;;;;;;10098099;29;20279;-77
2022/01/07 00:17:47;;;;;;;7.40;3.20;;;-1.80;99.90;;;;;;10080263;29;20383;-77
2022/01/07 00:23:10;;;;;;;10.80;4.53;;;-1.80;99.90;;;;;;10079228;29;20250;-77
2022/01/07 00:28:31;;;;;;;14.97;5.33;;;-1.90;99.90;;;;;;10078984;29;20280;-78
2022/01/07 00:33:53;;;;;;;10.10;3.80;;;-1.80;99.90;;;;;;10079102;29;20280;-77
2022/01/07 00:39:15;;;;;;;8.03;2.90;;;-1.80;99.90;;;;;;10079626;29;20222;-78
2022/01/07 00:44:37;;;;;;;7.97;2.77;;;-1.80;99.90;;;;;;10086458;29;20525;-77
2022/01/07 00:49:59;;;;;;;7.93;2.53;;;-1.80;99.90;;;;;;10087555;29;20280;-77
2022/01/07 00:55:23;;;;;;;7.87;2.53;;;-1.90;99.90;;;;;;10087400;29;20491;-77
2022/01/07 01:00:45;;;;;;;10.97;4.07;;;-1.80;99.90;;;;;;10087092;29;20229;-78
2022/01/07 01:06:07;;;;;;;22.70;6.47;;;-1.90;99.90;;;;;;10085661;29;20234;-76
2022/01/07 01:11:29;;;;;;;25.77;8.13;;;-2.00;99.90;;;;;;10089807;29;20567;-76
2022/01/07 01:16:51;;;;;;;20.87;7.67;;;-2.00;99.90;;;;;;10086526;29;20201;-77
2022/01/07 01:22:13;;;;;;;19.20;5.40;;;-2.00;99.90;;;;;;10072276;29;20534;-77
2022/01/07 01:27:35;;;;;;;11.70;4.43;;;-2.00;99.90;;;;;;10085095;29;20217;-76
2022/01/07 01:33:00;;;;;;;12.37;4.40;;;-2.00;99.90;;;;;;10084784;29;20279;-77
2022/01/07 01:38:22;;;;;;;11.97;4.40;;;-2.10;99.90;;;;;;10084952;29;20238;-77
2022/01/07 01:43:48;;;;;;;17.23;5.53;;;-2.10;99.90;;;;;;10084148;29;20284;-77
2022/01/07 01:49:10;;;;;;;21.17;8.03;;;-2.10;99.90;;;;;;10085442;29;20206;-76
2022/01/07 01:54:32;;;;;;;15.00;6.87;;;-2.20;99.90;;;;;;10084657;29;20505;-77
2022/01/07 01:59:54;;;;;;;18.43;7.80;;;-2.20;99.90;;;;;;10083994;29;20279;-78
2022/01/07 02:05:31;;;;;;;15.43;6.30;;;-2.30;99.90;;;;;;10083875;29;20232;-76
2022/01/07 02:10:55;;;;;;;8.63;4.07;;;-2.40;99.90;;;;;;10085522;29;20211;-77
2022/01/07 02:16:16;;;;;;;7.80;4.20;;;-2.50;99.90;;;;;;10084586;29;20507;-77
2022/01/07 02:21:38;;;;;;;11.20;3.97;;;-2.60;99.90;;;;;;10083208;29;20444;-77
2022/01/07 02:27:02;;;;;;;8.70;3.60;;;-2.60;99.90;;;;;;10083068;29;20254;-77
2022/01/07 02:32:23;;;;;;;10.20;4.13;;;-2.60;99.90;;;;;;10083685;29;20309;-78
2022/01/07 02:37:45;;;;;;;14.50;4.93;;;-2.70;99.90;;;;;;10082980;29;20196;-76
2022/01/07 02:43:08;;;;;;;11.30;4.50;;;-2.70;99.90;;;;;;10082749;29;20521;-76
2022/01/07 02:48:30;;;;;;;16.23;5.33;;;-2.70;99.90;;;;;;10083334;29;20391;-77
2022/01/07 02:53:52;;;;;;;15.33;5.20;;;-2.70;99.90;;;;;;10082076;29;20209;-77
2022/01/07 02:59:14;;;;;;;20.67;8.03;;;-2.60;99.90;;;;;;10082866;29;20202;-78
2022/01/07 03:04:36;;;;;;;16.63;6.60;;;-2.50;99.90;;;;;;10080464;29;20295;-77
2022/01/07 03:09:58;;;;;;;17.77;6.53;;;-2.40;99.90;;;;;;10090193;29;20393;-76
2022/01/07 03:15:22;;;;;;;12.83;5.00;;;-2.30;99.90;;;;;;10094898;29;20231;-76
2022/01/07 03:20:45;;;;;;;20.67;8.00;;;-2.30;99.90;;;;;;10080932;29;20227;-76
2022/01/07 03:26:08;;;;;;;14.00;6.77;;;-2.30;99.90;;;;;;10067844;29;20255;-77
2022/01/07 03:31:30;;;;;;;12.30;5.40;;;-2.30;99.90;;;;;;10081116;29;20546;-77
2022/01/07 03:36:52;;;;;;;14.50;6.10;;;-2.40;99.90;;;;;;10081647;29;20449;-77
2022/01/07 03:42:13;;;;;;;21.70;7.57;;;-2.40;99.90;;;;;;10081376;29;20196;-77
2022/01/07 03:47:36;;;;;;;16.40;6.87;;;-2.40;99.90;;;;;;10080149;29;20268;-76
2022/01/07 03:52:59;;;;;;;13.07;6.17;;;-2.50;99.90;;;;;;10079985;29;20323;-77
2022/01/07 03:58:21;;;;;;;12.70;5.43;;;-2.50;99.90;;;;;;10080698;29;20442;-77
2022/01/07 04:03:43;;;;;;;17.63;6.37;;;-2.50;99.90;;;;;;10078937;29;20222;-77
2022/01/07 04:09:06;;;;;;;18.47;6.87;;;-2.50;99.90;;;;;;10081768;29;20224;-77
2022/01/07 04:14:28;;;;;;;17.90;6.53;;;-2.40;99.90;;;;;;10086230;29;20396;-77
2022/01/07 04:19:50;;;;;;;13.33;6.23;;;-2.50;99.90;;;;;;10079330;29;20199;-76
2022/01/07 04:25:17;;;;;;;10.77;4.70;;;-2.50;99.90;;;;;;10080117;29;20233;-76
2022/01/07 04:30:44;;;;;;;17.77;6.43;;;-2.40;99.90;;;;;;10065915;29;20509;-77
2022/01/07 04:36:07;;;;;;;12.83;5.93;;;-2.40;99.90;;;;;;10080075;29;20516;-77
2022/01/07 04:41:29;;;;;;;14.83;6.33;;;-2.40;99.90;;;;;;10078734;29;20486;-77
2022/01/07 04:46:51;;;;;;;13.70;6.23;;;-2.40;99.90;;;;;;10078565;29;20454;-77
2022/01/07 04:52:13;;;;;;;16.40;6.57;;;-2.40;99.90;;;;;;10078411;29;20210;-77
2022/01/07 04:57:35;;;;;;;14.80;6.13;;;-2.50;99.90;;;;;;10078432;29;20199;-77
2022/01/07 05:02:57;;;;;;;16.47;7.10;;;-2.40;99.90;;;;;;10077952;29;20279;-74
2022/01/07 05:08:19;;;;;;;16.43;7.30;;;-2.40;99.90;;;;;;10078514;29;20393;-75
2022/01/07 05:13:41;;;;;;;18.80;8.07;;;-2.40;99.90;;;;;;10089378;29;20218;-77
2022/01/07 05:19:03;;;;;;;18.83;6.83;;;-2.40;99.90;;;;;;10077865;29;20212;-77
2022/01/07 05:24:25;;;;;;;19.90;8.40;;;-2.30;99.90;;;;;;10078004;29;20290;-74
2022/01/07 05:29:47;;;;;;;78.70;28.77;;;-2.30;99.90;;;;;;10070121;29;20283;-75
2022/01/07 05:35:09;;;;;;;35.70;13.00;;;-2.20;99.90;;;;;;10072239;29;20260;-75
2022/01/07 05:40:31;;;;;;;21.53;8.60;;;-2.10;99.90;;;;;;10084744;29;20254;-75
2022/01/07 05:45:53;;;;;;;19.60;7.97;;;-2.00;99.90;;;;;;10085565;29;20222;-76
2022/01/07 05:51:15;;;;;;;19.83;9.67;;;-2.00;99.90;;;;;;10085468;29;20387;-75
2022/01/07 05:56:37;;;;;;;19.73;9.53;;;-1.90;99.90;;;;;;10085155;29;20233;-76
2022/01/07 06:02:00;;;;;;;26.97;12.13;;;-1.90;99.90;;;;;;10096715;29;20275;-76
2022/01/07 06:07:23;;;;;;;20.03;10.13;;;-1.80;99.90;;;;;;10083627;29;20534;-75
2022/01/07 06:12:45;;;;;;;25.27;10.73;;;-1.80;99.90;;;;;;10083939;29;20264;-76
2022/01/07 06:18:08;;;;;;;21.67;11.23;;;-1.70;99.90;;;;;;10083298;29;20515;-76
2022/01/07 06:23:29;;;;;;;32.17;15.40;;;-1.70;99.90;;;;;;10083745;29;20271;-75
2022/01/07 06:28:52;;;;;;;29.93;14.20;;;-1.60;99.90;;;;;;10083310;29;20259;-78
2022/01/07 06:34:16;;;;;;;34.47;14.93;;;-1.60;99.90;;;;;;10083593;29;20275;-76
2022/01/07 06:39:38;;;;;;;37.07;16.33;;;-1.50;99.90;;;;;;10082206;29;20203;-75
2022/01/07 06:44:59;;;;;;;50.10;21.77;;;-1.40;99.90;;;;;;10083123;29;20411;-75
2022/01/07 06:50:21;;;;;;;94.17;44.20;;;-1.40;99.90;;;;;;10082049;29;20199;-74
2022/01/07 06:55:43;;;;;;;112.60;49.57;;;-1.30;99.90;;;;;;10081393;29;20311;-78
2022/01/07 07:01:08;;;;;;;85.33;39.70;;;-1.20;99.90;;;;;;10081772;29;20202;-77
2022/01/07 07:06:30;;;;;;;58.33;23.47;;;-1.10;99.90;;;;;;10080900;29;20228;-75
2022/01/07 07:11:52;;;;;;;99.50;36.00;;;-1.10;99.90;;;;;;10092173;29;20235;-76
2022/01/07 07:17:14;;;;;;;85.63;33.27;;;-1.10;99.90;;;;;;10080501;29;20503;-77
2022/01/07 07:22:36;;;;;;;60.10;26.40;;;-1.10;99.90;;;;;;10081365;29;20223;-76
2022/01/07 07:27:58;;;;;;;62.90;25.93;;;-1.00;99.90;;;;;;10064448;29;20290;-76
2022/01/07 07:38:45;;;;;;;40.57;19.67;;;-0.90;99.90;;;;;;10080087;29;20208;-77
2022/01/07 07:44:08;;;;;;;33.93;15.47;;;-0.90;99.90;;;;;;10079219;29;20226;-77
2022/01/07 07:49:30;;;;;;;52.63;21.20;;;-0.90;99.90;;;;;;10078718;29;20222;-77
2022/01/07 07:54:52;;;;;;;65.17;27.90;;;-0.90;99.90;;;;;;10079379;29;20196;-77
2022/01/07 08:00:14;;;;;;;39.97;20.23;;;-0.80;99.90;;;;;;10078337;29;20403;-77
2022/01/07 08:05:38;;;;;;;79.00;36.60;;;-0.90;99.90;;;;;;10079694;29;20299;-78
2022/01/07 08:11:03;;;;;;;50.53;23.60;;;-0.80;99.90;;;;;;10090437;29;20204;-77
2022/01/07 08:16:25;;;;;;;49.33;22.97;;;-0.70;99.90;;;;;;10078067;29;20210;-77
2022/01/07 08:21:47;;;;;;;51.27;23.97;;;-0.60;99.90;;;;;;10063204;29;20248;-77
2022/01/07 08:27:10;;;;;;;43.30;19.03;;;-0.70;99.90;;;;;;10064150;29;20233;-79
2022/01/07 08:38:26;;;;;;;52.23;24.27;;;-0.60;99.90;;;;;;10095847;29;20240;-79
2022/01/07 08:43:49;;;;;;;50.40;25.73;;;-0.50;99.90;;;;;;10096937;29;20236;-77
2022/01/07 08:49:11;;;;;;;61.03;30.17;;;-0.40;99.90;;;;;;10074361;29;20209;-78
2022/01/07 08:54:33;;;;;;;64.20;30.90;;;-0.30;99.90;;;;;;10065162;29;20372;-78
2022/01/07 08:59:55;;;;;;;63.10;28.03;;;-0.20;99.90;;;;;;10064262;29;20213;-79
2022/01/07 09:05:28;;;;;;;63.13;32.03;;;-0.20;99.90;;;;;;10096734;29;20324;-79
2022/01/07 09:10:50;;;;;;;62.57;32.10;;;-0.20;99.90;;;;;;10084478;29;20564;-79
2022/01/07 09:16:12;;;;;;;60.33;31.57;;;-0.20;99.90;;;;;;10064854;29;20255;-90
2022/01/07 09:21:51;;;;;;;79.30;36.17;;;0.00;99.90;;;;;;10098522;29;20216;-77
2022/01/07 09:27:13;;;;;;;60.40;26.23;;;0.10;99.90;;;;;;10081078;29;20870;-79
2022/01/07 09:32:35;;;;;;;51.57;26.80;;;0.10;99.90;;;;;;10080596;29;20207;-78
2022/01/07 09:37:57;;;;;;;55.67;28.33;;;0.20;99.90;;;;;;10066351;29;20280;-79
2022/01/07 09:43:19;;;;;;;57.40;29.83;;;0.20;99.90;;;;;;10028628;29;20209;-77
2022/01/07 09:48:42;;;;;;;45.27;27.27;;;0.40;99.90;;;;;;10099958;29;20212;-80
2022/01/07 09:54:05;;;;;;;51.10;26.27;;;0.50;99.90;;;;;;10092865;29;20393;-81
2022/01/07 09:59:28;;;;;;;38.27;22.17;;;0.50;99.90;;;;;;10075974;29;20543;-77
2022/01/07 10:04:50;;;;;;;38.57;21.77;;;0.50;99.90;;;;;;10078633;29;20323;-77
2022/01/07 10:10:16;;;;;;;37.33;20.03;;;0.60;99.90;;;;;;10077930;29;20224;-88
2022/01/07 10:15:40;;;;;;;47.57;20.83;;;0.60;99.90;;;;;;10067747;29;20255;-79
2022/01/07 10:21:08;;;;;;;36.37;18.50;;;0.80;99.90;;;;;;10065877;29;20209;-80
2022/01/07 10:26:30;;;;;;;36.87;20.20;;;0.90;99.90;;;;;;10089998;29;20226;-76
2022/01/07 10:31:54;;;;;;;35.23;20.03;;;0.90;99.90;;;;;;10077986;29;20244;-81
2022/01/07 10:37:16;;;;;;;35.97;17.23;;;1.00;99.90;;;;;;10078167;29;20632;-84
2022/01/07 10:42:38;;;;;;;31.70;14.53;;;1.20;99.90;;;;;;10077734;29;20229;-79
2022/01/07 10:47:59;;;;;;;35.03;19.40;;;1.10;99.90;;;;;;10076094;29;20240;-77
2022/01/07 10:53:26;;;;;;;29.27;15.33;;;1.30;99.90;;;;;;10076327;29;20222;-76
2022/01/07 10:58:58;;;;;;;30.90;13.63;;;1.50;99.90;;;;;;10076501;29;20574;-77
2022/01/07 11:04:26;;;;;;;34.50;12.87;;;1.50;99.90;;;;;;10077702;29;20253;-77
2022/01/07 11:09:48;;;;;;;23.53;11.40;;;1.50;99.90;;;;;;10062254;29;20211;-79
2022/01/07 11:15:10;;;;;;;48.27;16.77;;;1.30;99.90;;;;;;10062551;29;20286;-79
2022/01/07 11:20:32;;;;;;;37.33;16.27;;;1.50;99.90;;;;;;10077101;29;20508;-83
2022/01/07 11:26:00;;;;;;;38.10;18.13;;;1.70;99.90;;;;;;10037993;29;20597;-81
2022/01/07 11:31:23;;;;;;;29.17;14.30;;;2.10;99.90;;;;;;10037881;29;20442;-76
2022/01/07 11:36:46;;;;;;;31.20;13.13;;;2.40;99.90;;;;;;10067615;29;20219;-80
2022/01/07 11:42:08;;;;;;;36.07;16.97;;;2.60;99.90;;;;;;10082017;29;20218;-85
2022/01/07 11:47:31;;;;;;;34.17;16.67;;;2.70;99.90;;;;;;10108238;29;20237;-84
2022/01/07 11:53:04;;;;;;;36.13;14.93;;;2.50;99.90;;;;;;10095470;29;20283;-79
2022/01/07 11:58:43;;;;;;;31.17;15.83;;;2.50;99.90;;;;;;10061257;29;20278;-77
2022/01/07 12:04:19;;;;;;;35.47;15.90;;;2.30;99.90;;;;;;10075860;29;20226;-76
2022/01/07 12:09:41;;;;;;;45.90;19.30;;;2.20;99.90;;;;;;10074544;29;20203;-78
2022/01/07 12:15:04;;;;;;;36.87;17.07;;;2.40;99.90;;;;;;10074457;29;20282;-76
2022/01/07 12:20:35;;;;;;;32.03;15.53;;;2.40;99.90;;;;;;10074989;29;20227;-74
2022/01/07 12:26:02;;;;;;;28.97;12.33;;;2.40;99.90;;;;;;10073819;29;20273;-81
2022/01/07 12:31:24;;;;;;;30.87;12.93;;;2.50;99.90;;;;;;10059904;29;20238;-76
2022/01/07 12:36:58;;;;;;;24.80;11.93;;;2.40;99.90;;;;;;10074200;29;20222;-76
2022/01/07 12:42:21;;;;;;;24.33;10.43;;;2.40;99.90;;;;;;10074467;29;20206;-79
2022/01/07 12:47:43;;;;;;;24.80;10.90;;;2.50;99.90;;;;;;10097293;29;20242;-77
2022/01/07 12:53:06;;;;;;;46.03;13.33;;;2.50;99.90;;;;;;10090495;29;20226;-78
2022/01/07 12:58:28;;;;;;;24.37;12.07;;;2.40;99.90;;;;;;10073776;29;20274;-78
2022/01/07 13:04:09;;;;;;;25.53;9.90;;;2.50;99.90;;;;;;10072829;29;20218;-77
2022/01/07 13:09:30;;;;;;;23.23;10.73;;;2.50;99.90;;;;;;10073669;29;20206;-75
2022/01/07 13:14:53;;;;;;;32.10;14.00;;;2.50;99.90;;;;;;10091773;29;20202;-75
2022/01/07 13:20:29;;;;;;;25.77;11.93;;;2.60;99.90;;;;;;10108852;29;20442;-75
2022/01/07 13:25:54;;;;;;;40.90;16.67;;;2.40;99.90;;;;;;10072664;29;20235;-80
2022/01/07 13:31:20;;;;;;;33.20;16.60;;;2.40;99.90;;;;;;10046621;29;20246;-75
2022/01/07 13:36:44;;;;;;;22.20;10.63;;;2.30;99.90;;;;;;10085215;29;20218;-77
2022/01/07 13:42:08;;;;;;;28.40;12.33;;;2.20;99.90;;;;;;10084587;29;20331;-77
2022/01/07 13:47:37;;;;;;;30.33;14.50;;;2.10;99.90;;;;;;10094411;29;20606;-77
2022/01/07 13:53:16;;;;;;;30.83;11.23;;;2.00;99.90;;;;;;10093753;29;20213;-75
2022/01/07 13:58:40;;;;;;;38.20;15.63;;;1.80;99.90;;;;;;10079805;29;20214;-78
2022/01/07 14:04:03;;;;;;;33.10;14.53;;;1.70;99.90;;;;;;10078781;29;20222;-77
2022/01/07 14:09:24;;;;;;;26.53;13.00;;;1.60;99.90;;;;;;10065194;29;20637;-76
2022/01/07 14:14:46;;;;;;;26.40;12.73;;;1.60;99.90;;;;;;10094992;29;20500;-75
2022/01/07 14:20:10;;;;;;;27.53;12.27;;;1.50;99.90;;;;;;10114113;29;20265;-76
2022/01/07 14:25:32;;;;;;;45.03;22.00;;;1.40;99.90;;;;;;10078668;29;20230;-76
2022/01/07 14:30:56;;;;;;;34.87;17.47;;;1.30;99.90;;;;;;10077587;29;20271;-75
2022/01/07 14:36:23;;;;;;;34.37;16.63;;;1.20;99.90;;;;;;10078041;29;20566;-75
2022/01/07 14:46:34;;;;;;;47.30;23.07;;;1.20;99.90;;;;;;10508118;28;20560;-76
2022/01/07 14:51:56;;;;;;;33.23;16.03;;;1.10;99.90;;;;;;10511503;28;20198;-75
2022/01/07 14:57:19;;;;;;;33.17;17.00;;;1.00;99.90;;;;;;10504288;28;20204;-74
2022/01/07 15:02:41;;;;;;;29.90;16.20;;;1.00;99.90;;;;;;10491540;28;20238;-77
2022/01/07 15:08:07;;;;;;;29.70;14.93;;;1.00;99.90;;;;;;10533920;28;20243;-80
2022/01/07 15:13:29;;;;;;;30.17;14.43;;;0.90;99.90;;;;;;10491643;28;20216;-80
2022/01/07 15:18:51;;;;;;;28.20;13.63;;;0.80;99.90;;;;;;10491344;28;20206;-80
2022/01/07 15:24:17;;;;;;;37.67;14.80;;;0.70;99.90;;;;;;10507267;28;20541;-78
2022/01/07 15:29:40;;;;;;;34.00;14.80;;;0.70;99.90;;;;;;10506725;28;20566;-78
2022/01/07 15:35:08;;;;;;;35.20;14.97;;;0.60;99.90;;;;;;10506154;28;20232;-78
2022/01/07 15:40:30;;;;;;;28.83;15.40;;;0.60;99.90;;;;;;10504698;28;20481;-79
2022/01/07 15:45:52;;;;;;;51.60;21.93;;;0.60;99.90;;;;;;10504805;28;20585;-76
2022/01/07 15:51:14;;;;;;;44.33;20.33;;;0.60;99.90;;;;;;10504750;28;20240;-75
2022/01/07 15:56:36;;;;;;;38.67;18.87;;;0.60;99.90;;;;;;10484158;28;20527;-76
2022/01/07 16:01:58;;;;;;;32.53;15.73;;;0.60;99.90;;;;;;10477780;28;20206;-76
2022/01/07 16:07:21;;;;;;;31.10;16.00;;;0.50;99.90;;;;;;10481438;28;20208;-77
2022/01/07 16:12:44;;;;;;;36.00;19.70;;;0.50;99.90;;;;;;10453020;28;20256;-76
2022/01/07 16:18:06;;;;;;;42.33;18.13;;;0.50;99.90;;;;;;10480836;28;20211;-78
2022/01/07 16:23:28;;;;;;;45.47;20.53;;;0.40;99.90;;;;;;10481632;28;20415;-78
2022/01/07 16:28:50;;;;;;;37.40;16.47;;;0.30;99.90;;;;;;10478595;28;20534;-79
2022/01/07 16:34:15;;;;;;;39.77;16.30;;;0.30;99.90;;;;;;10477973;28;20203;-79
2022/01/07 16:39:37;;;;;;;43.17;19.67;;;0.30;99.90;;;;;;10477677;28;20198;-77
2022/01/07 16:44:59;;;;;;;44.80;21.07;;;0.20;99.90;;;;;;10465862;28;20489;-77
2022/01/07 16:50:21;;;;;;;36.23;17.90;;;0.20;99.90;;;;;;10465838;28;20249;-78
2022/01/07 16:55:43;;;;;;;34.50;17.10;;;0.10;99.90;;;;;;10480079;28;20221;-78
2022/01/07 17:01:05;;;;;;;34.40;16.23;;;0.10;99.90;;;;;;10480291;28;20266;-78
2022/01/07 17:06:28;;;;;;;38.30;18.63;;;0.10;99.90;;;;;;10464458;28;20226;-77
2022/01/07 17:11:52;;;;;;;48.80;23.20;;;0.10;99.90;;;;;;10465545;28;20233;-77
2022/01/07 17:17:14;;;;;;;44.90;18.67;;;0.10;99.90;;;;;;10478705;28;20199;-80
2022/01/07 17:22:37;;;;;;;34.00;16.10;;;0.20;99.90;;;;;;10478865;28;20228;-78
2022/01/07 17:27:59;;;;;;;35.13;16.53;;;0.10;99.90;;;;;;10479766;28;20558;-77
2022/01/07 17:33:21;;;;;;;29.53;14.80;;;0.20;99.90;;;;;;10479191;28;20211;-76
2022/01/07 17:38:43;;;;;;;35.37;16.47;;;0.20;99.90;;;;;;10450917;28;20491;-77
2022/01/07 17:44:05;;;;;;;32.80;16.67;;;0.20;99.90;;;;;;10450241;28;20276;-76
2022/01/07 17:49:27;;;;;;;34.97;15.50;;;0.20;99.90;;;;;;10477420;28;20202;-78
2022/01/07 17:54:50;;;;;;;31.83;15.23;;;0.20;99.90;;;;;;10465925;28;20197;-78
2022/01/07 18:00:15;;;;;;;29.30;15.10;;;0.20;99.90;;;;;;10477893;28;20371;-78
2022/01/07 18:05:38;;;;;;;30.43;15.00;;;0.30;99.90;;;;;;10463592;28;20225;-78
2022/01/07 18:11:00;;;;;;;27.97;15.63;;;0.30;99.90;;;;;;10478076;28;20194;-78
2022/01/07 18:16:23;;;;;;;34.00;15.70;;;0.40;99.90;;;;;;10476572;28;20199;-77
2022/01/07 18:21:46;;;;;;;29.00;14.03;;;0.40;99.90;;;;;;10477424;28;20424;-76
2022/01/07 18:27:09;;;;;;;32.50;14.90;;;0.40;99.90;;;;;;10476664;28;20203;-78
2022/01/07 18:32:31;;;;;;;25.03;13.73;;;0.40;99.90;;;;;;10462225;28;20493;-78
2022/01/07 18:37:52;;;;;;;25.97;14.23;;;0.50;99.90;;;;;;10476837;28;20199;-76
2022/01/07 18:43:15;;;;;;;30.83;14.17;;;0.50;99.90;;;;;;10477093;28;20254;-76
2022/01/07 18:48:37;;;;;;;31.57;16.20;;;0.50;99.90;;;;;;10457941;28;20202;-77
2022/01/07 18:54:00;;;;;;;40.10;16.40;;;0.60;99.90;;;;;;10476247;28;20224;-77
2022/01/07 18:59:22;;;;;;;34.07;15.77;;;0.50;99.90;;;;;;10477373;28;20546;-78
2022/01/07 19:04:44;;;;;;;26.27;14.90;;;0.40;99.90;;;;;;10475731;28;20408;-77
2022/01/07 19:10:06;;;;;;;28.77;14.30;;;0.50;99.90;;;;;;10476165;28;20244;-80
2022/01/07 19:15:28;;;;;;;36.30;17.17;;;0.50;99.90;;;;;;10476723;28;20214;-80
2022/01/07 19:20:52;;;;;;;42.97;19.00;;;0.40;99.90;;;;;;10476192;28;20494;-76
2022/01/07 19:26:14;;;;;;;39.23;18.10;;;0.40;99.90;;;;;;10461370;28;20238;-78
2022/01/07 19:31:35;;;;;;;32.63;16.87;;;0.40;99.90;;;;;;10481318;28;20242;-77
2022/01/07 19:36:57;;;;;;;42.83;20.80;;;0.40;99.90;;;;;;10484498;28;20273;-78
2022/01/07 19:42:20;;;;;;;37.93;18.17;;;0.40;99.90;;;;;;10484017;28;20236;-78
2022/01/07 19:47:42;;;;;;;40.97;18.90;;;0.40;99.90;;;;;;10464368;28;20552;-77
2022/01/07 19:53:05;;;;;;;36.87;17.60;;;0.40;99.90;;;;;;10481959;28;20194;-75
2022/01/07 19:58:27;;;;;;;49.70;21.97;;;0.40;99.90;;;;;;10483707;28;20481;-75
2022/01/07 20:03:49;;;;;;;40.03;19.90;;;0.50;99.90;;;;;;10482064;28;20226;-76
2022/01/07 20:09:12;;;;;;;37.07;19.50;;;0.50;99.90;;;;;;10481732;28;20203;-77
2022/01/07 20:14:36;;;;;;;40.60;20.40;;;0.50;99.90;;;;;;10481404;28;20300;-79
2022/01/07 20:19:58;;;;;;;40.33;18.83;;;0.60;99.90;;;;;;10467451;28;20211;-77
2022/01/07 20:25:20;;;;;;;46.60;22.70;;;0.50;99.90;;;;;;10480934;28;20230;-76
2022/01/07 20:30:42;;;;;;;41.37;22.00;;;0.40;99.90;;;;;;10480766;28;20221;-77
2022/01/07 20:36:06;;;;;;;72.83;39.20;;;0.40;99.90;;;;;;10482391;28;20262;-76
2022/01/07 20:41:28;;;;;;;67.60;33.43;;;0.50;99.90;;;;;;10480481;28;20202;-77
2022/01/07 20:46:50;;;;;;;42.47;21.80;;;0.50;99.90;;;;;;10479894;28;20274;-77
2022/01/07 20:52:12;;;;;;;44.40;25.30;;;0.50;99.90;;;;;;10480002;28;20191;-77
2022/01/07 20:57:34;;;;;;;35.10;19.97;;;0.50;99.90;;;;;;10481231;28;20199;-76
2022/01/07 21:02:56;;;;;;;36.37;18.60;;;0.60;99.90;;;;;;10481077;28;20224;-77
2022/01/07 21:08:18;;;;;;;37.27;19.97;;;0.50;99.90;;;;;;10479333;28;20200;-78
2022/01/07 21:13:40;;;;;;;35.73;20.47;;;0.50;99.90;;;;;;10479318;28;20457;-76
2022/01/07 21:19:03;;;;;;;30.37;17.23;;;0.40;99.90;;;;;;10480257;28;20201;-76
2022/01/07 21:24:25;;;;;;;36.67;18.23;;;0.40;99.90;;;;;;10478715;28;20223;-77
2022/01/07 21:29:47;;;;;;;39.17;19.67;;;0.40;99.90;;;;;;10478329;28;20186;-77
2022/01/07 21:35:13;;;;;;;31.60;17.40;;;0.50;99.90;;;;;;10479904;28;20359;-77
2022/01/07 21:40:35;;;;;;;28.10;17.10;;;0.50;99.90;;;;;;10478146;28;20198;-76
2022/01/07 21:45:57;;;;;;;30.23;17.27;;;0.50;99.90;;;;;;10477370;28;20280;-79
2022/01/07 21:51:19;;;;;;;35.47;19.83;;;0.50;99.90;;;;;;10498604;28;20199;-78
2022/01/07 21:56:40;;;;;;;35.40;19.17;;;0.50;99.90;;;;;;10484375;28;20190;-78
2022/01/07 22:02:05;;;;;;;33.37;17.63;;;0.50;99.90;;;;;;10477557;28;20227;-78
2022/01/07 22:07:28;;;;;;;35.30;21.07;;;0.50;99.90;;;;;;10477885;28;20224;-78
2022/01/07 22:12:53;;;;;;;44.07;22.57;;;0.50;99.90;;;;;;10478367;28;20198;-79
2022/01/07 22:18:15;;;;;;;35.83;21.33;;;0.50;99.90;;;;;;10477624;28;20513;-79
2022/01/07 22:23:37;;;;;;;35.60;20.90;;;0.50;99.90;;;;;;10477589;28;20230;-78
2022/01/07 22:28:59;;;;;;;32.67;19.93;;;0.50;99.90;;;;;;10476301;28;20295;-79
2022/01/07 22:34:22;;;;;;;35.07;19.67;;;0.60;99.90;;;;;;10478127;28;20198;-79
2022/01/07 22:39:48;;;;;;;40.90;21.87;;;0.60;99.90;;;;;;10436656;28;20222;-79
2022/01/07 22:45:13;;;;;;;42.47;23.23;;;0.60;99.90;;;;;;10490005;28;20250;-78
2022/01/07 22:50:35;;;;;;;45.43;22.67;;;0.70;99.90;;;;;;10476930;28;20205;-78
2022/01/07 22:55:58;;;;;;;51.30;26.13;;;0.70;99.90;;;;;;10477604;28;20527;-78
2022/01/07 23:01:20;;;;;;;39.23;21.50;;;0.60;99.90;;;;;;10476071;28;20195;-77
2022/01/07 23:06:42;;;;;;;42.30;23.77;;;0.60;99.90;;;;;;10482179;28;20229;-78
2022/01/07 23:12:05;;;;;;;42.07;23.70;;;0.70;99.90;;;;;;10485297;28;20226;-77
2022/01/07 23:17:28;;;;;;;53.50;30.27;;;0.70;99.90;;;;;;10484214;28;20195;-78
2022/01/07 23:22:50;;;;;;;48.87;29.00;;;0.70;99.90;;;;;;10484659;28;20311;-78
2022/01/07 23:28:13;;;;;;;39.40;22.47;;;0.70;99.90;;;;;;10483455;28;20444;-77
2022/01/07 23:33:35;;;;;;;45.33;23.20;;;0.80;99.90;;;;;;10483300;28;20225;-77
2022/01/07 23:38:59;;;;;;;43.93;22.87;;;0.70;99.90;;;;;;10483543;28;20498;-77
2022/01/07 23:44:21;;;;;;;43.07;22.73;;;0.70;99.90;;;;;;10482886;28;20546;-79
2022/01/07 23:49:43;;;;;;;38.10;22.30;;;0.70;99.90;;;;;;10483145;28;20202;-78
2022/01/07 23:55:07;;;;;;;40.17;22.67;;;0.70;99.90;;;;;;10484372;28;20190;-77
